createdAt,value
2022-09-06T00:00:37.094Z,23.68
2022-09-06T00:05:37.342Z,23.64
2022-09-06T00:10:37.734Z,23.56
2022-09-06T00:15:39.225Z,23.50
2022-09-06T00:20:41.588Z,23.50
2022-09-06T00:25:41.601Z,23.38
2022-09-06T00:30:42.324Z,23.32
2022-09-06T00:35:41.354Z,23.27
2022-09-06T00:40:40.851Z,23.26
2022-09-06T00:45:41.855Z,23.16
2022-09-06T00:50:40.905Z,23.12
2022-09-06T00:55:44.234Z,23.21
2022-09-06T01:00:45.058Z,23.16
2022-09-06T01:06:07.330Z,23.16
2022-09-06T01:11:12.222Z,23.19
2022-09-06T01:16:20.034Z,23.13
2022-09-06T01:21:30.598Z,23.01
2022-09-06T01:27:08.250Z,23.14
2022-09-06T01:32:16.581Z,23.15
2022-09-06T01:37:20.384Z,23.19
2022-09-06T01:42:26.249Z,23.21
2022-09-06T01:47:38.375Z,23.10
2022-09-06T01:52:41.279Z,23.09
2022-09-06T01:57:55.212Z,23.12
2022-09-06T02:03:14.658Z,23.02
2022-09-06T02:08:19.500Z,23.02
2022-09-06T02:13:21.538Z,23.01
2022-09-06T02:18:25.834Z,23.02
2022-09-06T02:23:28.468Z,23.01
2022-09-06T02:28:29.274Z,22.90
2022-09-06T02:33:33.953Z,22.81
2022-09-06T02:38:35.616Z,22.84
2022-09-06T02:43:34.988Z,22.84
2022-09-06T02:48:35.482Z,22.69
2022-09-06T02:53:37.371Z,22.75
2022-09-06T02:58:36.895Z,22.87
2022-09-06T03:03:37.338Z,22.86
2022-09-06T03:08:36.840Z,22.80
2022-09-06T03:13:35.982Z,22.54
2022-09-06T03:18:36.522Z,22.35
2022-09-06T03:23:37.628Z,22.22
2022-09-06T03:28:43.130Z,22.06
2022-09-06T03:33:43.901Z,22.06
2022-09-06T03:38:43.007Z,21.95
2022-09-06T03:43:43.019Z,21.84
2022-09-06T03:48:43.514Z,21.79
2022-09-06T03:53:42.718Z,21.78
2022-09-06T03:58:41.838Z,21.71
2022-09-06T04:03:42.094Z,21.59
2022-09-06T04:08:42.724Z,21.64
2022-09-06T04:13:41.773Z,21.69
2022-09-06T04:18:40.883Z,21.71
2022-09-06T04:23:40.249Z,21.77
2022-09-06T04:28:41.006Z,21.83
2022-09-06T04:33:40.374Z,21.74
2022-09-06T04:38:41.163Z,21.82
2022-09-06T04:43:41.929Z,21.85
2022-09-06T04:48:40.957Z,21.78
2022-09-06T04:53:39.942Z,21.88
2022-09-06T04:58:38.907Z,21.94
2022-09-06T05:03:39.461Z,22.08
2022-09-06T05:08:55.773Z,22.19
2022-09-06T05:14:00.670Z,22.10
2022-09-06T05:19:15.149Z,22.16
2022-09-06T05:24:15.012Z,22.15
2022-09-06T05:29:14.183Z,22.34
2022-09-06T05:34:15.365Z,22.50
2022-09-06T05:39:14.437Z,22.61
2022-09-06T05:44:13.568Z,22.73
2022-09-06T05:49:14.747Z,22.75
2022-09-06T05:54:13.807Z,22.62
2022-09-06T05:59:12.782Z,22.65
2022-09-06T06:04:11.944Z,22.53
2022-09-06T06:09:12.494Z,22.63
2022-09-06T06:14:14.273Z,22.78
2022-09-06T06:19:13.319Z,22.96
2022-09-06T06:24:13.794Z,23.14
2022-09-06T06:29:12.771Z,23.26
2022-09-06T06:34:11.956Z,23.38
2022-09-06T06:39:11.102Z,23.39
2022-09-06T06:44:11.645Z,23.39
2022-09-06T06:49:11.072Z,23.39
2022-09-06T06:54:10.251Z,23.33
2022-09-06T06:59:10.015Z,23.39
2022-09-06T07:04:12.290Z,23.25
2022-09-06T07:09:11.279Z,23.30
2022-09-06T07:14:10.495Z,23.42
2022-09-06T07:24:30.344Z,23.88
2022-09-06T07:29:31.269Z,24.11
2022-09-06T07:34:33.187Z,24.55
2022-09-06T07:39:33.242Z,24.88
2022-09-06T07:44:32.378Z,25.34
2022-09-06T07:49:34.775Z,26.00
2022-09-06T07:54:33.940Z,26.54
2022-09-06T07:59:33.030Z,26.93
2022-09-06T08:04:33.473Z,27.28
2022-09-06T08:09:33.120Z,27.41
2022-09-06T08:14:32.831Z,27.60
2022-09-06T08:19:34.568Z,27.80
2022-09-06T08:24:35.937Z,27.69
2022-09-06T08:29:35.040Z,27.38
2022-09-06T08:34:36.447Z,27.20
2022-09-06T08:39:35.252Z,27.73
2022-09-06T08:50:04.203Z,28.51
2022-09-06T08:55:26.474Z,28.67
2022-09-06T09:00:25.938Z,29.69
2022-09-06T09:05:29.750Z,30.53
2022-09-06T09:10:30.970Z,31.41
2022-09-06T09:15:30.126Z,31.96
2022-09-06T09:20:30.818Z,33.05
2022-09-06T09:25:36.297Z,33.65
2022-09-06T09:38:14.314Z,35.08
2022-09-06T09:44:04.619Z,35.67
2022-09-06T09:55:34.502Z,36.27
2022-09-06T10:00:40.093Z,36.51
2022-09-06T10:05:39.357Z,36.58
2022-09-06T10:10:43.078Z,36.73
2022-09-06T10:15:42.611Z,37.82
2022-09-06T10:20:49.386Z,37.83
2022-09-06T10:25:56.698Z,37.93
2022-09-06T10:31:27.339Z,38.31
2022-09-06T10:36:35.891Z,38.83
2022-09-06T10:41:58.367Z,39.17
2022-09-06T10:47:06.227Z,40.16
2022-09-06T10:52:08.271Z,40.73
2022-09-06T11:13:48.525Z,41.77
2022-09-06T11:18:51.963Z,41.75
2022-09-06T11:23:54.130Z,42.35
2022-09-06T11:28:58.316Z,42.90
2022-09-06T11:34:11.597Z,43.01
2022-09-06T11:39:11.274Z,42.54
2022-09-06T11:44:15.459Z,42.40
2022-09-06T11:49:32.289Z,43.27
2022-09-06T11:54:43.130Z,42.80
2022-09-06T11:59:58.440Z,41.70
2022-09-06T12:05:22.696Z,42.42
2022-09-06T12:10:49.812Z,42.58
2022-09-06T12:15:55.676Z,41.86
2022-09-06T12:21:04.007Z,42.22
2022-09-06T12:26:04.507Z,42.86
2022-09-06T12:32:01.484Z,42.98
2022-09-06T12:37:07.195Z,43.20
2022-09-06T12:42:08.866Z,42.69
2022-09-06T12:47:16.795Z,42.33
2022-09-06T12:52:22.505Z,42.80
2022-09-06T12:57:26.066Z,43.35
2022-09-06T13:02:41.420Z,43.52
2022-09-06T13:07:45.330Z,43.42
2022-09-06T13:12:50.460Z,43.91
2022-09-06T13:17:53.587Z,44.13
2022-09-06T13:22:56.082Z,44.24
2022-09-06T13:28:01.725Z,44.12
2022-09-06T13:33:03.828Z,44.10
2022-09-06T13:38:26.660Z,43.89
2022-09-06T13:43:27.145Z,43.96
2022-09-06T13:48:37.156Z,44.05
2022-09-06T13:53:36.809Z,43.93
2022-09-06T13:58:44.549Z,44.20
2022-09-06T14:03:45.157Z,44.37
2022-09-06T14:09:07.339Z,44.54
2022-09-06T14:14:07.415Z,44.53
2022-09-06T14:19:08.272Z,44.61
2022-09-06T14:24:08.763Z,44.32
2022-09-06T14:29:08.703Z,44.19
2022-09-06T14:34:11.397Z,44.32
2022-09-06T14:39:24.951Z,44.24
2022-09-06T14:44:27.536Z,44.37
2022-09-06T14:49:28.536Z,44.33
2022-09-06T14:54:40.647Z,44.38
2022-09-06T14:59:42.122Z,44.15
2022-09-06T15:04:46.106Z,43.02
2022-09-06T15:09:46.390Z,42.57
2022-09-06T15:14:45.707Z,42.82
2022-09-06T15:19:57.266Z,42.97
2022-09-06T15:25:41.480Z,42.69
2022-09-06T15:31:05.865Z,42.55
2022-09-06T15:37:14.071Z,42.21
2022-09-06T15:42:28.950Z,42.02
2022-09-06T15:48:21.380Z,41.72
2022-09-06T15:53:43.681Z,41.23
2022-09-06T16:11:00.283Z,39.40
2022-09-06T16:16:45.865Z,38.81
2022-09-06T16:29:11.966Z,37.10
2022-09-06T16:34:15.910Z,36.34
2022-09-06T16:39:15.435Z,35.62
2022-09-06T16:44:17.624Z,34.91
2022-09-06T16:49:26.701Z,34.31
2022-09-06T16:54:25.831Z,33.69
2022-09-06T16:59:28.424Z,33.29
2022-09-06T17:04:29.268Z,32.73
2022-09-06T17:09:28.552Z,32.23
2022-09-06T17:14:29.342Z,31.69
2022-09-06T17:19:31.429Z,31.42
2022-09-06T17:24:30.532Z,31.13
2022-09-06T17:29:33.396Z,30.80
2022-09-06T17:34:34.284Z,30.55
2022-09-06T17:39:36.227Z,30.29
2022-09-06T17:44:38.153Z,29.92
2022-09-06T17:49:42.098Z,29.71
2022-09-06T17:54:41.106Z,29.53
2022-09-06T17:59:40.119Z,29.33
2022-09-06T18:04:42.313Z,29.18
2022-09-06T18:09:41.915Z,29.00
2022-09-06T18:14:41.645Z,28.84
2022-09-06T18:19:42.517Z,28.68
2022-09-06T18:24:42.163Z,28.54
2022-09-06T18:29:46.706Z,28.43
2022-09-06T18:34:47.754Z,28.28
2022-09-06T18:39:46.993Z,28.06
2022-09-06T18:44:48.743Z,27.90
2022-09-06T18:49:49.463Z,27.82
2022-09-06T18:54:49.637Z,27.70
2022-09-06T18:59:50.753Z,27.65
2022-09-06T19:04:54.618Z,27.51
2022-09-06T19:09:54.511Z,27.39
2022-09-06T19:14:53.622Z,27.30
2022-09-06T19:19:54.517Z,27.22
2022-09-06T19:24:53.931Z,27.06
2022-09-06T19:29:53.562Z,26.96
2022-09-06T19:34:54.919Z,26.90
2022-09-06T19:39:57.758Z,26.74
2022-09-06T19:44:57.263Z,26.35
2022-09-06T19:50:00.550Z,25.76
2022-09-06T19:55:00.384Z,25.28
2022-09-06T19:59:59.794Z,25.13
2022-09-06T20:05:00.698Z,25.16
2022-09-06T20:10:02.895Z,25.02
2022-09-06T20:15:02.253Z,24.70
2022-09-06T20:20:03.151Z,24.62
2022-09-06T20:25:02.368Z,24.32
2022-09-06T20:30:10.444Z,24.02
2022-09-06T20:35:11.678Z,24.07
2022-09-06T20:40:13.332Z,24.00
2022-09-06T20:45:13.046Z,23.94
2022-09-06T20:50:14.186Z,23.87
2022-09-06T20:55:13.548Z,23.71
2022-09-06T21:00:14.663Z,23.59
2022-09-06T21:05:16.503Z,23.47
2022-09-06T21:10:15.648Z,23.33
2022-09-06T21:15:15.884Z,23.30
2022-09-06T21:20:16.756Z,23.22
2022-09-06T21:25:18.644Z,23.13
2022-09-06T21:30:21.137Z,22.63
2022-09-06T21:35:24.669Z,22.78
2022-09-06T21:40:25.684Z,22.84
2022-09-06T21:45:24.822Z,22.69
2022-09-06T21:50:25.502Z,22.60
2022-09-06T21:55:25.037Z,22.60
2022-09-06T22:00:24.274Z,22.49
2022-09-06T22:05:24.826Z,22.47
2022-09-06T22:10:24.984Z,22.35
2022-09-06T22:15:24.418Z,22.22
2022-09-06T22:20:25.252Z,22.06
2022-09-06T22:25:24.462Z,22.14
2022-09-06T22:30:25.718Z,22.08
2022-09-06T22:35:26.460Z,22.00
2022-09-06T22:40:25.707Z,22.04
2022-09-06T22:45:24.992Z,21.89
2022-09-06T22:50:25.553Z,21.76
2022-09-06T22:55:24.858Z,21.91
2022-09-06T23:00:24.072Z,21.87
2022-09-06T23:05:25.264Z,21.61
2022-09-06T23:10:24.452Z,21.35
2022-09-06T23:15:23.825Z,21.26
2022-09-06T23:20:22.786Z,21.12
2022-09-06T23:25:23.228Z,20.98
2022-09-06T23:30:22.347Z,20.98
2022-09-06T23:35:21.492Z,20.94
2022-09-06T23:40:21.064Z,20.75
2022-09-06T23:45:22.068Z,20.88
2022-09-06T23:50:21.186Z,20.81
2022-09-06T23:55:20.226Z,20.82
